Latest Weather Observations for Warwick

IDQ60901

Issued at 7:01 pm EST Saturday 25 February 2017 (issued every 10 minutes, with the page automatically refreshed every 10 minutes)

About weather observations | Map of Brisbane area stations | Latest observations for Brisbane area | Other Formats
Station Details ID: 041525 Name: WARWICK Lat: -28.21 Lon: 152.10 Height: 475.4 m
Data from the previous 72 hours. | See also: Recent months at Warwick
Date/Time
EST
Temp
°C
App
Temp
°C
Dew
Point
°C
Rel
Hum
%
Delta-T
°C
Wind Press
QNH
hPa
Press
MSL
hPa
Rain since
9am
mm
Dir  Spd
km/h
Gust
km/h
Spd
kts
Gust
kts
25/06:30pm 24.9 24.9 15.1 54 6.0 ESE 9 17 5 9 1015.4 1012.8 -
25/06:00pm 26.5 26.0 14.8 48 7.2 SE 11 22 6 12 1015.1 1012.4 -
25/05:30pm 27.8 27.2 14.6 44 8.1 ESE 11 19 6 10 1014.6 1012.0 -
25/05:00pm 28.4 27.4 14.6 43 8.5 ESE 13 22 7 12 1014.4 1011.8 -
25/04:30pm 28.7 27.9 15.0 43 8.5 ESE 13 22 7 12 1014.4 1011.8 -
25/04:00pm 29.3 28.1 15.0 41 8.9 SE 15 28 8 15 1014.4 1011.8 -
25/03:30pm 28.9 27.6 14.9 42 8.7 ESE 15 24 8 13 1014.5 1011.9 -
25/03:00pm 29.4 29.0 15.1 41 8.9 ESE 11 20 6 11 1014.8 1012.2 -
25/02:30pm 28.7 28.0 14.4 41 8.8 ESE 11 20 6 11 1015.1 1012.4 -
25/02:00pm 29.2 28.1 14.4 40 9.1 SE 13 32 7 17 1015.5 1012.9 -
25/01:30pm 28.3 26.8 14.3 42 8.6 SE 15 28 8 15 1015.9 1013.3 -
25/01:00pm 28.2 27.2 14.7 43 8.3 SE 13 24 7 13 1016.4 1013.8 -
25/12:30pm 27.5 25.9 14.0 43 8.2 SSE 15 24 8 13 1016.8 1014.2 -
25/12:00pm 27.3 26.4 14.8 46 7.7 SE 13 24 7 13 1017.0 1014.4 -
25/11:30am 26.6 26.0 14.7 48 7.3 ESE 11 19 6 10 1017.4 1014.8 -
25/11:00am 26.6 25.6 14.5 47 7.4 SE 13 28 7 15 1017.7 1015.1 -
25/09:00am 23.3 21.2 14.7 58 5.2 SE 19 32 10 17 1018.7 1016.1 0.0
25/08:30am 23.5 22.2 14.9 58 5.2 SE 15 28 8 15 1018.7 1016.1 0.0
25/08:00am 20.8 18.6 14.8 68 3.6 SE 20 33 11 18 1018.6 1016.0 0.0
25/07:30am 21.3 20.6 15.5 69 3.5 SE 13 22 7 12 1018.5 1015.9 0.0
25/07:00am 20.0 20.8 16.4 80 2.2 ESE 7 17 4 9 1018.4 1015.8 0.0
25/06:30am 18.3 19.7 16.3 88 1.2 E 4 7 2 4 1018.4 1015.8 0.0
25/06:00am 17.2 18.4 15.9 92 0.8 ESE 4 7 2 4 1018.3 1015.7 0.0
25/05:30am 17.8 18.4 15.8 88 1.2 ESE 7 13 4 7 1017.9 1015.3 0.0
25/05:00am 17.0 18.5 15.8 93 0.7 NE 2 9 1 5 1017.5 1014.9 0.0
25/04:30am 17.6 18.9 16.1 91 0.9 ESE 4 7 2 4 1017.3 1014.7 0.0
25/04:00am 18.5 20.2 16.2 86 1.4 SSE 2 7 1 4 1017.4 1014.8 0.0
25/03:30am 18.5 20.7 16.4 87 1.3 CALM 0 0 0 0 1017.3 1014.7 0.0
25/03:00am 18.9 20.9 16.1 84 1.7 CALM 0 0 0 0 1017.4 1014.8 0.0
25/02:30am 19.1 20.0 16.0 82 1.9 SSE 6 9 3 5 1017.3 1014.7 0.0
25/02:00am 17.8 19.3 15.6 87 1.3 ENE 2 9 1 5 1017.4 1014.8 0.0
25/01:30am 17.2 17.9 15.5 90 1.0 NE 6 9 3 5 1017.5 1014.9 0.0
25/01:00am 16.7 17.7 15.4 92 0.8 NNE 4 7 2 4 1017.6 1015.0 0.0
25/12:30am 17.1 18.8 15.2 88 1.1 CALM 0 0 0 0 1017.8 1015.2 0.0
25/12:00am 17.5 18.9 15.3 87 1.3 ESE 2 7 1 4 1017.9 1015.3 0.0
 
Date/Time
EST
Temp
°C
App
Temp
°C
Dew
Point
°C
Rel
Hum
%
Delta-T
°C
Wind Press
QNH
hPa
Press
MSL
hPa
Rain since
9am
mm
Dir  Spd
km/h
Gust
km/h
Spd
kts
Gust
kts
24/11:30pm 18.0 19.1 14.6 80 2.0 ENE 2 6 1 3 1018.0 1015.4 0.0
24/11:00pm 18.6 19.7 14.7 78 2.3 ENE 2 7 1 4 1018.1 1015.5 0.0
24/10:30pm 19.3 19.8 14.9 75 2.6 E 6 7 3 4 1018.2 1015.6 0.0
24/10:00pm 18.9 20.4 14.7 76 2.5 CALM 0 0 0 0 1018.2 1015.6 0.0
24/09:30pm 18.8 20.2 14.4 75 2.6 CALM 0 0 0 0 1018.1 1015.5 0.0
24/09:00pm 20.5 20.7 14.1 66 3.8 E 6 9 3 5 1018.1 1015.5 0.0
24/08:30pm 21.0 21.0 14.1 64 4.1 NE 7 9 4 5 1017.9 1015.3 0.0
24/08:00pm 20.6 19.6 12.4 59 4.7 NE 9 13 5 7 1017.6 1015.0 0.0
24/07:30pm 21.4 21.2 13.6 61 4.6 NNE 7 9 4 5 1017.6 1015.0 0.0
24/07:00pm 22.6 22.0 12.4 52 5.9 NE 7 11 4 6 1017.3 1014.7 0.0
24/06:30pm 24.6 25.4 13.7 50 6.5 E 2 9 1 5 1017.0 1014.4 0.0
24/06:00pm 27.5 27.3 13.6 42 8.4 ESE 7 13 4 7 1016.9 1014.3 0.0
24/05:30pm 29.0 28.5 13.7 39 9.3 ESE 9 19 5 10 1016.7 1014.1 0.0
24/05:00pm 29.6 28.4 12.8 35 10.1 ESE 11 19 6 10 1016.6 1014.0 0.0
24/04:30pm 29.8 28.7 13.1 36 10.1 ESE 11 26 6 14 1016.6 1014.0 0.0
24/04:00pm 30.3 29.3 12.2 33 10.8 SE 9 19 5 10 1016.6 1014.0 0.0
24/03:30pm 30.5 28.9 11.4 30 11.3 SE 11 22 6 12 1016.6 1014.0 0.0
24/03:00pm 30.7 29.1 11.4 30 11.4 SE 11 22 6 12 1016.7 1014.1 0.0
24/02:30pm 30.4 28.9 13.1 34 10.5 ESE 13 30 7 16 1016.8 1014.2 0.0
24/02:00pm 30.4 28.1 11.7 31 11.1 SE 15 30 8 16 1017.1 1014.6 0.0
24/01:30pm 29.8 28.0 12.2 33 10.5 SSE 13 19 7 10 1017.6 1015.0 0.0
24/01:00pm 28.9 28.2 14.4 41 8.9 SE 11 19 6 10 1018.0 1015.4 0.0
24/12:30pm 28.3 27.9 14.2 42 8.6 ESE 9 17 5 9 1018.4 1015.8 0.0
24/12:00pm 27.4 27.2 14.7 45 7.8 S 9 19 5 10 1018.8 1016.2 0.0
24/11:30am 27.2 27.3 15.4 48 7.3 SE 9 17 5 9 1019.2 1016.7 0.0
24/11:00am 26.3 26.5 14.7 48 7.1 E 7 17 4 9 1019.7 1017.1 0.0
24/10:30am 25.3 24.6 14.4 50 6.6 ESE 11 17 6 9 1020.1 1017.5 0.0
24/10:00am 24.1 23.8 14.5 55 5.8 SE 9 17 5 9 1020.5 1017.9 0.0
24/09:30am 23.6 22.9 14.3 56 5.6 ESE 11 17 6 9 1020.7 1018.1 0.0
24/09:00am 23.0 22.3 14.3 58 5.2 ESE 11 22 6 12 1020.6 1018.0 0.0
24/08:30am 22.2 21.2 14.5 61 4.6 ESE 13 22 7 12 1020.6 1018.0 0.0
24/08:00am 21.4 21.0 15.1 67 3.8 E 11 19 6 10 1020.6 1018.0 0.0
24/07:30am 19.1 19.7 15.4 79 2.2 ENE 6 11 3 6 1020.4 1017.8 0.0
24/07:00am 16.2 16.5 14.5 90 1.0 NE 6 9 3 5 1020.3 1017.7 0.0
24/06:30am 14.9 14.9 13.5 91 0.8 ENE 6 9 3 5 1019.9 1017.3 0.0
24/06:00am 14.3 13.6 13.2 93 0.6 NNE 9 11 5 6 1019.5 1016.9 0.0
24/05:30am 13.7 13.2 12.8 94 0.5 NE 7 9 4 5 1019.1 1016.6 0.0
24/05:00am 13.5 13.1 13.1 97 0.2 ENE 7 9 4 5 1019.0 1016.5 0.0
24/04:30am 14.7 14.7 13.5 92 0.7 ENE 6 7 3 4 1018.8 1016.2 0.0
24/04:00am 14.9 14.8 13.9 94 0.6 ENE 7 9 4 5 1018.6 1016.0 0.0
24/03:30am 16.0 16.1 14.5 91 0.9 E 7 11 4 6 1018.5 1015.9 0.0
24/03:00am 16.0 16.8 14.8 93 0.7 E 4 9 2 5 1018.7 1016.1 0.0
24/02:30am 16.3 16.6 14.9 91 0.8 NE 7 15 4 8 1018.7 1016.1 0.0
24/02:00am 17.0 17.0 15.3 90 1.0 SE 9 15 5 8 1018.9 1016.3 0.0
24/01:30am 17.4 17.1 15.4 88 1.2 SSE 11 17 6 9 1019.3 1016.8 0.0
24/01:00am 17.1 17.1 15.2 88 1.1 SSE 9 13 5 7 1019.6 1017.0 0.0
24/12:30am 16.9 18.5 14.9 88 1.2 CALM 0 0 0 0 1019.8 1017.2 0.0
24/12:00am 16.9 18.3 14.3 85 1.5 CALM 0 2 0 1 1020.0 1017.4 0.0
 
Date/Time
EST
Temp
°C
App
Temp
°C
Dew
Point
°C
Rel
Hum
%
Delta-T
°C
Wind Press
QNH
hPa
Press
MSL
hPa
Rain since
9am
mm
Dir  Spd
km/h
Gust
km/h
Spd
kts
Gust
kts
23/11:30pm 16.9 16.8 13.8 82 1.8 N 7 11 4 6 1020.2 1017.6 0.0
23/11:00pm 17.2 17.2 14.1 82 1.8 NE 7 9 4 5 1020.3 1017.7 0.0
23/10:30pm 17.5 18.7 13.9 79 2.1 CALM 0 0 0 0 1020.4 1017.8 0.0
23/10:00pm 18.2 18.8 14.3 78 2.3 E 4 7 2 4 1020.4 1017.8 0.0
23/09:30pm 18.8 20.0 14.8 77 2.4 ESE 2 9 1 5 1020.3 1017.7 0.0
23/09:00pm 19.2 20.4 14.8 75 2.6 ENE 2 7 1 4 1020.4 1017.8 0.0
23/08:30pm 19.8 20.0 14.2 70 3.3 ENE 6 9 3 5 1020.1 1017.5 0.0
23/08:00pm 20.2 19.9 14.3 69 3.5 NE 9 11 5 6 1019.9 1017.3 0.0
23/07:30pm 20.7 20.5 13.7 64 4.1 ENE 7 9 4 5 1019.7 1017.1 0.0
23/07:00pm 23.1 23.0 13.9 56 5.5 ESE 7 11 4 6 1019.2 1016.7 0.0
23/06:30pm 24.9 24.3 13.5 49 6.8 ESE 9 15 5 8 1019.0 1016.5 0.0
23/06:00pm 26.8 26.3 13.7 44 7.9 SE 9 19 5 10 1018.8 1016.2 0.0
23/05:30pm 27.8 26.2 12.9 39 8.9 SE 13 22 7 12 1018.5 1015.9 0.0
23/05:00pm 28.5 27.1 13.4 39 9.1 ESE 13 22 7 12 1018.3 1015.7 0.0
23/04:30pm 28.6 27.3 12.5 37 9.6 ESE 11 19 6 10 1018.1 1015.5 0.0
23/04:00pm 29.5 28.1 13.5 37 9.7 ESE 13 24 7 13 1017.9 1015.3 0.0
23/03:30pm 29.5 27.9 13.8 38 9.6 SE 15 28 8 15 1017.8 1015.2 0.0
23/03:00pm 29.9 28.2 13.5 36 10.0 SE 15 24 8 13 1018.0 1015.4 0.0
23/02:30pm 29.4 27.6 13.4 37 9.7 SE 15 26 8 14 1018.3 1015.7 0.0
23/02:00pm 29.2 28.1 13.1 37 9.7 SE 11 22 6 12 1018.5 1015.9 0.0
23/01:30pm 28.6 28.1 13.8 40 9.0 SE 9 20 5 11 1018.7 1016.1 0.0
23/01:00pm 28.3 27.8 14.9 44 8.3 SE 11 20 6 11 1019.0 1016.5 0.0
23/12:30pm 27.1 25.9 14.1 44 7.9 SE 13 22 7 12 1019.2 1016.7 0.0
23/12:00pm 26.8 26.2 14.5 46 7.5 ESE 11 22 6 12 1019.6 1017.0 0.0
23/11:30am 26.3 25.2 14.3 47 7.3 SE 13 20 7 11 1019.8 1017.2 0.0
23/11:00am 26.0 25.7 14.3 48 7.1 SE 9 19 5 10 1020.2 1017.6 0.0
23/10:30am 25.1 23.9 14.1 50 6.6 SE 13 20 7 11 1020.8 1018.2 0.0
23/10:00am 24.3 22.9 14.5 54 5.9 SE 15 24 8 13 1020.9 1018.4 0.0
23/09:30am 23.5 21.6 14.1 55 5.6 SE 17 32 9 17 1021.0 1018.5 0.0
23/09:00am 22.7 20.6 14.7 60 4.8 SSE 19 28 10 15 1020.9 1018.4 0.0
23/08:30am 22.0 19.8 14.3 61 4.6 SE 19 30 10 16 1020.9 1018.4 0.0
23/08:00am 21.5 20.0 15.2 67 3.8 SE 17 28 9 15 1020.7 1018.1 0.0
23/07:30am 20.1 19.4 15.5 75 2.8 SE 13 22 7 12 1020.5 1017.9 0.0
23/07:00am 18.6 19.3 16.0 85 1.6 SE 7 13 4 7 1020.6 1018.0 0.0
23/06:30am 16.7 17.6 15.2 91 0.9 SE 4 9 2 5 1020.5 1017.9 0.0
23/06:00am 14.5 15.0 14.0 97 0.3 ENE 4 7 2 4 1020.2 1017.6 0.0
23/05:30am 14.6 15.1 13.9 96 0.4 ESE 4 9 2 5 1019.9 1017.3 0.0
23/05:00am 15.0 16.3 14.1 94 0.5 CALM 0 4 0 2 1019.7 1017.1 0.0
23/04:30am 14.7 16.0 14.0 96 0.4 CALM 0 0 0 0 1019.5 1016.9 0.0
23/04:00am 15.3 15.3 14.3 94 0.6 NE 7 11 4 6 1019.5 1016.9 0.0
23/03:30am 15.1 15.3 14.2 94 0.5 NE 6 7 3 4 1019.5 1016.9 0.0
23/03:00am 16.1 16.9 14.7 91 0.8 E 4 9 2 5 1019.8 1017.2 0.0
23/02:30am 16.0 16.7 14.6 91 0.8 ESE 4 7 2 4 1019.9 1017.3 0.0
23/02:00am 15.7 15.9 14.3 91 0.8 NE 6 9 3 5 1020.0 1017.4 0.0
23/01:30am 16.0 17.3 14.1 88 1.1 CALM 0 6 0 3 1020.2 1017.6 0.0
23/01:00am 15.9 16.9 14.2 90 1.0 NE 2 6 1 3 1020.5 1017.9 0.0
23/12:30am 15.9 17.2 14.2 90 1.0 CALM 0 6 0 3 1020.6 1018.0 0.0
23/12:00am 16.8 17.7 14.0 83 1.6 NE 2 7 1 4 1020.7 1018.1 0.0
 
Date/Time
EST
Temp
°C
App
Temp
°C
Dew
Point
°C
Rel
Hum
%
Delta-T
°C
Wind Press
QNH
hPa
Press
MSL
hPa
Rain since
9am
mm
Dir  Spd
km/h
Gust
km/h
Spd
kts
Gust
kts
22/11:30pm 17.9 17.9 14.1 78 2.2 E 7 13 4 7 1021.0 1018.5 0.0
22/11:00pm 17.6 17.7 14.4 81 1.9 ESE 7 11 4 6 1021.1 1018.6 0.0
22/10:30pm 18.4 18.5 14.5 78 2.3 SE 7 15 4 8 1021.1 1018.6 0.0
22/10:00pm 18.9 18.4 14.9 77 2.4 SE 11 15 6 8 1021.1 1018.6 0.0
22/09:30pm 19.0 19.3 15.1 78 2.3 SE 7 13 4 7 1021.2 1018.7 0.0
22/09:00pm 19.8 18.9 14.9 73 2.9 SE 13 19 7 10 1021.0 1018.5 0.0
22/08:30pm 20.2 19.8 15.2 73 3.0 SE 11 17 6 9 1020.7 1018.1 0.0
22/08:00pm 20.5 21.1 15.2 71 3.2 SE 6 11 3 6 1020.3 1017.7 0.0
22/07:30pm 21.3 21.0 15.5 69 3.5 SE 11 17 6 9 1020.0 1017.4 0.0

Latest Capital City Observations: Canberra | Sydney | Melbourne | Brisbane | Adelaide | Perth | Hobart | Darwin

Other Formats:

Comma delimited format used in spreadsheet applications
http://www.bom.gov.au/fwo/IDQ60901/IDQ60901.94555.axf

JavaScript Object Notation format (JSON) in row-major order
http://www.bom.gov.au/fwo/IDQ60901/IDQ60901.94555.json